Portada
METAR-TAF:

METAR-TAF

Aeropuertos :

Aeropuerto Internacional de La Habana

La Habana, Cuba

latitud: 22-59N, longitud: 082-24W, altitud: 59 m

Observación

El informe se hizo hace 38 minutos, a las 05:55 UTC
Viento 8 kt del norte
Temperatura 18°C
Humedad 73%
Presión 1021 hPa
Visibilidad: 9000 m
Nubes dispersas a una altura de 2500 ft

METAR: MUHA 160555Z 01008KT 9000 SCT025 18/13 Q1021

Hora: 01:33 (06:33 UTC)

Pronóstico

El informe se hizo hace 1 hora y 33 minutos, a las 05:00 UTC
Pronóstico válido del 16 a las 06 UTC al 17 a las 06 UTC
Viento 6 kt del norte
Visibilidad: 9000 m
Nubes dispersas a una altura de 2000 ft
Evolucionando progresivamente
del 16 a las 13 UTC al 16 a las 15 UTC
Viento 12 kt del norte-noreste

TAF: MUHA 160500Z 1606/1706 01006KT 9000 SCT020 BECMG 1613/1615 02012KT

Observaciones y pronósticos meteorológicos de más de 4000 aeropuertos (mensajes METAR y TAF).

Los puntos amarillos y rojos representan las estaciones disponibles.

Ponga el ratón en el punto deseado para ver el nombre de la estación.

Haga clic para ver las observaciones y los pronósticos meteorológicos.

Para cambiar el mapa : haga clic en los botones verdes con una cruz de color negro para hacer un zoom, en el botón verde con un guión para alejar o en las flechas verdes para mapas adyacentes.


METAR-TAF: